Pays
Station

 

Conditions  météo  pour  Quimper  -  France    France

  
5 °C
    
 
 

METAR pour Quimper :

LFRQ 100300Z AUTO 18005KT 9999 BKN031 OVC240 05/05 Q1027

 

Voici le bulletin pour Quimper - France.
 
Le bulletin a été fait il y a 34 minutes, à 03:00 UTC .
Le vent soufflait à la vitesse de 2.6 mètres par seconde de Sud (180°).
 
La température était de 5 °C, avec un point de rosée à 5 °C.
La pression atmosphérique était de 1027 hPa.
L'humidité relative était de 100.0%.
 
Il y avait 5 à 7/8ème de nébulosité à une hauteur de 945 mètres. Le ciel était nuageux à partir d'une hauteur de 7315 mètres
 
La visibilité globale était de supérieure à 10 kilomètres.
 

 
 
 

Pays :   A   B   C   D   E   F   G   H   I   J   K   L   M   N   O   P   Q   R   S   T   U   V   W   Y   Z

 

Partenaires :  Info Météo avec Met'info
Météo Marine avec MeteoMarine.net
Infos Site  |  Infos Légales  |  Crédits  |  Confidentialité
Contactez-nous  |  Ajouter aux favoris
© 2013-2019 METAR - Tous droits réservés